Onde está Quinta da Vassala en Portugal?

 

Quinta da Vassala está situado na região Lisboa em Portugal!

Buscar o nome de uma cidade:

Quinuartelan, Quintana, Quinh Lam, Quinualoma, Quintero

Aqui você vai encontrar a localização de Quinta da Vassala em um mapa.
Para ver como ele atualmente parece, abaixo estão algumas fotos da região, com webcams online.
Você também pode encontrar a distância para as principais cidades da região e de cidades do resto do Portugal.

Cidades do mundo
Cidades em Portugal que também são encontradas em outros países do mundo.


Onde está Quinta da Vassala no mapa?




Webcams perto Quinta da Vassala

Benavente › South: Garrocheira - Airport.


Benavente › South: Garrocheira - Airport - Dia
Actual
Benavente › South: Garrocheira - Airport - Actual

Nossa Senhora do Populo, Coto e Sao Gregorio: Caldas da Rainha.


Nossa Senhora do Populo, Coto e Sao Gregorio: Caldas da Rainha - Dia
Actual
Nossa Senhora do Populo, Coto e Sao Gregorio: Caldas da Rainha - Actual

Benavente › North-East: Santarém - AIrport, METAR: BENAV 180005Z 36004KT 17/14 Q1015.


Benavente › North-East: Santarém - AIrport, METAR: BENAV 180005Z 36004KT 17/14 Q1015 - Dia
Actual
Benavente › North-East: Santarém - AIrport, METAR: BENAV 180005Z 36004KT 17/14 Q1015 - Actual

Webcams provided by webcams.travel


Distâncias

Onde está Quinta da Vassala em relação a outros lugares?

Top 10 cidades em Lisboa e distância de Quinta da Vassala.

Cidade#Populaçãokmmilhas
Lisbon15177985333
Amadora21788565132
Queluz31033985333
Loures4662304226
Rio de Mouro5546955534
Odivelas6546234729
São Domingos de Rana7467176138
Cascais8364366641
Alcabideche9333156339
Póvoa de Santa Iria10289003522

Top 10 cidades em Portugal e distância de Quinta da Vassala.

Cidade # Populaçãokmmilhas
Lisbon15177985333
Porto2249630222138
Amadora31788565132
Braga4121393269167
Setúbal51171097245
Coimbra610658012477
Queluz71033985333
Funchal8980411019633
Vila Nova de Gaia970810220137
Loures10662304226



Info

Estatística e Geografia

Portugal é composta de 15299 cidades em 20 regiões.

A região de Lisboa tem 1032 cidades.

Quinta da Vassala é o número 808 na região Lisboa.

A cidade é o número 11050 na Portugal.

Onde está Quinta da Vassala en Portugal?